Time;durP1;ratioP1;P1;durP2;ratioP2;P2;SDS_P1;SDS_P2;PMS_P1;PMS_P2;Temp;Humidity;BMP_temperature;BMP_pressure;BME280_temperature;BME280_humidity;BME280_pressure;Samples;Min_cycle;Max_cycle;Signal;HPM_P1;HPM_P2
2022/09/19 03:58:18;;;;;;;3.65;1.80;;;;;;;13.01;77.13;100056.84;5606150;31;86638;-55
2022/09/19 04:01:21;;;;;;;1.85;1.30;;;;;;;13.01;77.13;100056.84;5583848;31;34063;-56
2022/09/19 04:04:25;;;;;;;2.25;1.50;;;;;;;12.58;79.46;100059.12;5583892;31;34267;-56
2022/09/19 04:07:29;;;;;;;2.40;1.50;;;;;;;12.56;77.26;100062.12;5583832;31;33305;-56
2022/09/19 04:10:31;;;;;;;1.65;1.35;;;;;;;12.62;77.42;100058.25;5583943;31;34193;-55
2022/09/19 04:13:33;;;;;;;2.17;1.50;;;;;;;12.79;78.06;100062.22;5583916;31;34310;-56
2022/09/19 04:16:36;;;;;;;1.80;1.40;;;;;;;12.66;78.07;100061.94;5583690;31;33117;-55
2022/09/19 04:19:42;;;;;;;1.85;1.40;;;;;;;12.69;78.11;100060.53;5583810;31;33186;-56
2022/09/19 04:22:44;;;;;;;3.58;1.50;;;;;;;12.68;78.38;100072.38;5583768;31;33109;-56
2022/09/19 04:25:47;;;;;;;1.85;1.35;;;;;;;12.72;78.30;100076.06;5583550;31;33515;-56
2022/09/19 04:28:50;;;;;;;1.60;1.20;;;;;;;12.70;78.78;100070.97;5569663;31;34279;-56
2022/09/19 04:31:52;;;;;;;1.60;1.30;;;;;;;12.79;78.86;100070.28;5563927;32;33486;-56
2022/09/19 04:34:55;;;;;;;2.03;1.30;;;;;;;12.75;79.25;100056.66;5563014;32;33991;-56
2022/09/19 04:37:57;;;;;;;2.65;1.48;;;;;;;12.72;79.43;100056.44;5564118;32;33228;-55
2022/09/19 04:41:01;;;;;;;2.55;1.48;;;;;;;12.89;78.79;100056.59;5563881;32;33406;-56
2022/09/19 04:44:05;;;;;;;2.33;1.48;;;;;;;12.87;79.44;100058.78;5563988;32;33785;-56
2022/09/19 04:47:10;;;;;;;3.25;1.45;;;;;;;12.87;79.62;100056.09;5563890;32;34338;-56
2022/09/19 04:50:17;;;;;;;1.87;1.35;;;;;;;12.83;79.18;100052.44;5563691;32;31554;-56
2022/09/19 04:53:30;;;;;;;2.17;1.40;;;;;;;12.83;79.67;100057.81;5570121;31;33717;-56
2022/09/19 04:56:33;;;;;;;2.70;1.67;;;;;;;12.76;80.36;100058.22;5570306;31;33400;-56
2022/09/19 04:59:36;;;;;;;3.72;1.30;;;;;;;12.68;80.61;100059.75;5576481;32;32982;-55
2022/09/19 05:02:39;;;;;;;2.33;1.50;;;;;;;12.68;82.39;100062.44;5582061;31;34278;-56
2022/09/19 05:05:50;;;;;;;3.15;1.45;;;;;;;12.75;81.70;100063.87;5577091;31;33372;-57
2022/09/19 05:08:54;;;;;;;4.87;1.65;;;;;;;12.76;81.76;100066.28;5571666;32;34305;-56
2022/09/19 05:11:58;;;;;;;2.22;1.77;;;;;;;12.79;82.16;100068.38;5569911;31;33153;-56
2022/09/19 05:15:00;;;;;;;2.37;1.85;;;;;;;12.86;80.99;100079.53;5569968;32;33301;-56
2022/09/19 05:18:03;;;;;;;6.07;2.25;;;;;;;12.81;81.10;100079.62;5569792;31;33202;-56
2022/09/19 05:21:08;;;;;;;4.50;2.08;;;;;;;12.77;80.91;100085.91;5569951;32;34386;-56
2022/09/19 05:24:10;;;;;;;1.80;1.30;;;;;;;12.83;80.72;100095.47;5568843;32;34383;-56
2022/09/19 05:27:13;;;;;;;4.95;2.10;;;;;;;12.98;80.32;100107.78;5568011;31;33857;-56
2022/09/19 05:30:16;;;;;;;2.78;1.80;;;;;;;12.87;81.28;100115.28;5569125;32;33818;-56
2022/09/19 05:33:23;;;;;;;3.12;1.40;;;;;;;12.80;83.13;100110.31;5565975;32;32129;-56
2022/09/19 05:36:27;;;;;;;3.33;1.48;;;;;;;12.80;84.79;100121.06;5552937;32;33410;-56
2022/09/19 05:39:30;;;;;;;4.37;1.90;;;;;;;12.81;83.76;100129.94;5554993;32;33377;-56
2022/09/19 05:42:32;;;;;;;3.40;1.40;;;;;;;12.83;84.45;100123.16;5565538;32;34208;-56
2022/09/19 05:45:37;;;;;;;3.25;1.50;;;;;;;12.87;85.01;100123.34;5554636;32;33469;-56
2022/09/19 05:48:40;;;;;;;1.87;1.52;;;;;;;12.82;83.94;100129.66;5553879;32;33434;-56
2022/09/19 05:51:42;;;;;;;2.60;1.30;;;;;;;12.70;83.82;100122.06;5560135;32;34382;-56
2022/09/19 05:54:45;;;;;;;1.98;1.33;;;;;;;12.76;82.76;100125.47;5568189;31;33267;-56
2022/09/19 05:57:52;;;;;;;2.37;1.15;;;;;;;12.72;83.34;100137.94;5567090;32;34454;-56
2022/09/19 06:00:55;;;;;;;4.47;1.27;;;;;;;12.68;83.99;100139.59;5556575;32;33318;-55
2022/09/19 06:03:59;;;;;;;1.65;1.30;;;;;;;12.53;82.24;100145.31;5569017;32;33966;-57
2022/09/19 06:07:01;;;;;;;3.37;1.40;;;;;;;12.40;82.39;100141.50;5565798;31;33263;-55
2022/09/19 06:10:05;;;;;;;2.50;1.30;;;;;;;12.44;82.44;100137.91;5567371;32;34686;-56
2022/09/19 06:13:15;;;;;;;4.22;1.70;;;;;;;12.38;83.64;100147.19;5567281;31;34408;-56
2022/09/19 06:16:18;;;;;;;3.28;1.37;;;;;;;12.45;84.59;100149.50;5568830;31;31466;-56
2022/09/19 06:19:22;;;;;;;3.05;1.75;;;;;;;12.48;84.68;100148.87;5566993;31;33498;-56
2022/09/19 06:22:26;;;;;;;2.87;1.50;;;;;;;12.47;83.91;100139.22;5567648;31;32177;-56
2022/09/19 06:25:30;;;;;;;3.45;1.52;;;;;;;12.36;84.45;100144.00;5569210;31;33296;-56
2022/09/19 06:28:32;;;;;;;2.90;1.35;;;;;;;12.35;84.53;100144.28;5567664;31;33743;-55
2022/09/19 06:31:36;;;;;;;1.85;1.17;;;;;;;12.49;83.58;100144.31;5567871;32;33265;-56
2022/09/19 06:34:40;;;;;;;3.45;1.67;;;;;;;12.43;85.49;100148.97;5568826;32;34080;-56
2022/09/19 06:38:00;;;;;;;3.12;1.40;;;;;;;12.41;84.47;100156.53;5567630;31;33369;-56
2022/09/19 06:41:07;;;;;;;5.22;1.48;;;;;;;12.52;84.60;100159.84;5566490;31;34265;-56
2022/09/19 06:44:10;;;;;;;1.25;1.00;;;;;;;12.29;84.38;100157.03;5549346;32;33233;-56
2022/09/19 06:47:13;;;;;;;2.20;1.15;;;;;;;12.31;84.19;100165.56;5548377;32;34015;-56
2022/09/19 06:50:16;;;;;;;1.67;1.00;;;;;;;12.29;84.87;100172.37;5564279;32;33602;-56
2022/09/19 06:53:18;;;;;;;2.78;1.30;;;;;;;12.38;84.43;100171.38;5568171;31;33188;-55
2022/09/19 06:56:24;;;;;;;1.98;1.40;;;;;;;12.50;85.43;100164.72;5566599;32;33196;-56
2022/09/19 06:59:27;;;;;;;4.25;1.60;;;;;;;12.45;84.93;100168.31;5567464;32;33652;-56
2022/09/19 07:02:30;;;;;;;2.97;1.35;;;;;;;12.38;86.45;100170.56;5558375;32;34068;-56
2022/09/19 07:05:35;;;;;;;3.97;1.48;;;;;;;12.35;86.79;100165.78;5553259;32;33334;-56
2022/09/19 07:08:39;;;;;;;2.65;1.08;;;;;;;12.44;85.13;100167.47;5568297;32;33836;-56
2022/09/19 07:11:43;;;;;;;3.65;1.35;;;;;;;12.28;84.90;100168.84;5568039;31;33216;-56
2022/09/19 07:14:47;;;;;;;3.17;1.40;;;;;;;12.20;84.26;100175.72;5568453;31;33378;-55
2022/09/19 07:17:54;;;;;;;1.77;1.20;;;;;;;12.27;86.15;100183.41;5567377;32;34110;-56
2022/09/19 07:21:00;;;;;;;2.08;1.00;;;;;;;12.20;85.91;100180.31;5564253;32;34451;-56
2022/09/19 07:24:04;;;;;;;1.73;1.05;;;;;;;12.18;85.63;100177.91;5567682;32;33381;-56
2022/09/19 07:27:12;;;;;;;1.55;1.05;;;;;;;12.29;87.69;100172.37;5565026;31;33337;-56
2022/09/19 07:30:14;;;;;;;2.75;0.90;;;;;;;12.27;85.37;100179.91;5565261;31;33498;-56
2022/09/19 07:33:20;;;;;;;2.17;0.85;;;;;;;12.31;84.55;100175.53;5567792;31;34343;-55
2022/09/19 07:36:23;;;;;;;1.40;0.80;;;;;;;12.35;84.91;100176.53;5565911;32;33590;-56
2022/09/19 07:39:25;;;;;;;1.23;0.90;;;;;;;12.28;83.80;100173.44;5565126;32;33693;-56
2022/09/19 08:42:15;;;;;;;1.35;0.70;;;;;;;13.00;69.81;100224.78;5557854;32;34671;-55
2022/09/19 08:45:27;;;;;;;4.50;0.70;;;;;;;13.05;71.32;100224.69;5569750;31;33425;-56
2022/09/19 08:48:46;;;;;;;0.85;0.65;;;;;;;13.18;70.10;100225.78;5563058;32;33372;-56
2022/09/19 08:51:52;;;;;;;0.62;0.62;;;;;;;13.22;66.89;100236.75;5569774;31;34397;-56
2022/09/19 08:54:57;;;;;;;1.23;0.80;;;;;;;13.30;64.92;100231.47;5569575;32;33704;-56
2022/09/19 08:58:05;;;;;;;0.77;0.50;;;;;;;13.44;64.94;100234.13;5569440;31;31090;-56
2022/09/19 09:01:09;;;;;;;2.00;0.73;;;;;;;13.44;63.77;100234.13;5571559;31;33288;-56
2022/09/19 09:04:31;;;;;;;1.90;0.88;;;;;;;13.34;64.42;100243.25;5569065;31;33574;-57
2022/09/19 09:07:48;;;;;;;2.55;0.80;;;;;;;13.42;66.99;100249.81;5568095;31;32865;-57
2022/09/19 09:11:14;;;;;;;1.02;0.60;;;;;;;13.44;61.51;100247.59;5552138;31;33372;-57
2022/09/19 09:14:27;;;;;;;0.70;0.50;;;;;;;13.49;61.70;100249.38;5549643;32;31851;-57
2022/09/19 09:17:48;;;;;;;1.92;0.75;;;;;;;13.72;62.81;100240.25;5562729;32;33604;-57
2022/09/19 09:21:03;;;;;;;3.55;0.65;;;;;;;13.87;61.40;100244.47;5549332;32;33802;-57
2022/09/19 09:24:32;;;;;;;2.65;0.80;;;;;;;14.00;62.48;100251.72;5562087;32;33755;-57
2022/09/19 09:27:57;;;;;;;1.58;0.65;;;;;;;13.93;60.29;100254.03;5552406;31;32885;-57
2022/09/19 09:31:13;;;;;;;2.67;0.98;;;;;;;13.67;61.37;100261.91;5568603;31;34039;-57
2022/09/19 09:35:26;;;;;;;1.30;0.60;;;;;;;13.66;61.05;100260.31;5569495;32;33756;-57
2022/09/19 09:38:36;;;;;;;0.93;0.50;;;;;;;13.49;58.91;100260.16;5491939;32;31919;-57
2022/09/19 09:42:04;;;;;;;1.77;0.40;;;;;;;13.40;59.59;100268.16;5527806;31;33303;-57
2022/09/19 09:45:16;;;;;;;1.12;0.50;;;;;;;13.55;59.39;100261.66;5568696;32;33676;-57
2022/09/19 09:48:33;;;;;;;2.70;0.70;;;;;;;13.58;59.34;100259.16;5569052;32;34509;-57
2022/09/19 09:52:05;;;;;;;1.12;0.45;;;;;;;13.61;60.32;100263.94;5568480;32;33632;-57
2022/09/19 09:58:46;;;;;;;0.82;0.50;;;;;;;13.63;57.26;100269.00;5569212;32;33986;-57
2022/09/19 10:05:36;;;;;;;1.75;0.68;;;;;;;13.48;59.85;100267.44;5568550;32;33349;-57
2022/09/19 10:09:02;;;;;;;1.23;0.80;;;;;;;13.62;60.41;100273.59;5567830;31;34234;-57
2022/09/19 10:12:24;;;;;;;2.75;1.10;;;;;;;13.70;58.74;100276.66;5568515;32;34375;-57
2022/09/19 10:15:53;;;;;;;1.23;0.68;;;;;;;13.71;59.13;100289.84;5568772;32;34451;-57
2022/09/19 10:19:25;;;;;;;1.15;0.57;;;;;;;13.53;63.03;100307.72;5569496;32;31978;-56
2022/09/19 10:22:29;;;;;;;1.40;0.70;;;;;;;13.19;70.28;100297.34;5567815;31;31515;-57
2022/09/19 10:25:32;;;;;;;0.60;0.50;;;;;;;12.92;72.19;100293.56;5568454;31;33285;-57
2022/09/19 10:28:43;;;;;;;0.50;0.50;;;;;;;12.91;73.64;100286.59;5567842;31;33959;-57
2022/09/19 10:31:47;;;;;;;2.95;1.35;;;;;;;12.85;73.15;100289.66;5568639;31;31938;-57
2022/09/19 10:34:53;;;;;;;1.62;0.80;;;;;;;12.89;77.05;100272.62;5568536;31;34461;-57
2022/09/19 10:37:59;;;;;;;0.88;0.50;;;;;;;12.87;74.15;100282.88;5557223;31;32173;-57
2022/09/19 10:41:04;;;;;;;1.20;0.50;;;;;;;13.11;70.79;100277.31;5568130;32;32626;-57
2022/09/19 10:44:26;;;;;;;0.82;0.65;;;;;;;13.22;69.92;100277.91;5560267;32;32609;-57
2022/09/19 10:47:36;;;;;;;2.70;0.80;;;;;;;13.22;67.00;100264.47;5559234;32;33023;-57
2022/09/19 10:50:45;;;;;;;4.78;0.40;;;;;;;13.29;68.89;100267.56;5567227;31;32217;-57
2022/09/19 10:53:54;;;;;;;1.48;0.50;;;;;;;13.42;66.92;100276.72;5566923;31;32265;-57
2022/09/19 10:56:59;;;;;;;0.85;0.50;;;;;;;13.64;66.13;100265.19;5568401;32;33627;-57
2022/09/19 11:00:04;;;;;;;2.70;0.40;;;;;;;13.77;64.59;100260.87;5554770;32;32929;-57
2022/09/19 11:03:23;;;;;;;1.87;0.60;;;;;;;13.82;63.61;100255.38;5552910;32;32308;-57
2022/09/19 11:06:28;;;;;;;0.50;0.43;;;;;;;13.94;66.33;100252.12;5564348;32;32107;-57
2022/09/19 11:09:36;;;;;;;1.20;0.40;;;;;;;14.13;62.07;100254.66;5568179;32;33630;-57
2022/09/19 11:12:43;;;;;;;5.62;1.25;;;;;;;14.14;60.32;100254.37;5567915;31;32059;-57
2022/09/19 11:16:11;;;;;;;1.37;0.70;;;;;;;14.07;64.14;100273.66;5568133;32;33637;-57
2022/09/19 11:19:36;;;;;;;4.75;1.10;;;;;;;13.52;72.03;100297.25;5568269;32;31875;-57
2022/09/19 11:23:13;;;;;;;2.65;0.70;;;;;;;13.15;78.37;100325.97;5562901;32;33727;-57
2022/09/19 11:26:47;;;;;;;1.45;0.80;;;;;;;12.60;78.89;100325.88;5561385;32;31962;-57
2022/09/19 11:30:11;;;;;;;1.62;0.77;;;;;;;12.12;79.14;100331.44;5559982;32;34141;-57
2022/09/19 11:33:32;;;;;;;0.40;0.40;;;;;;;12.09;82.10;100332.06;5560203;32;33762;-57
2022/09/19 11:37:19;;;;;;;0.82;0.50;;;;;;;12.04;80.81;100324.84;5558770;32;31671;-57
2022/09/19 11:40:29;;;;;;;;;;;;;;;11.90;82.16;100318.63;5557422;32;34754;-57
2022/09/19 11:44:03;;;;;;;0.70;0.50;;;;;;;11.89;83.80;100317.81;5557582;31;31796;-57
2022/09/19 11:47:12;;;;;;;1.60;0.70;;;;;;;11.97;84.51;100311.78;5559996;32;31918;-57
2022/09/19 11:50:37;;;;;;;1.58;0.98;;;;;;;12.20;85.39;100317.38;5558266;32;34535;-57
2022/09/19 11:54:01;;;;;;;3.35;0.60;;;;;;;12.36;84.65;100323.31;5567778;31;32257;-57
2022/09/19 11:57:16;;;;;;;1.02;0.75;;;;;;;12.57;84.89;100311.13;5560563;32;31978;-57
2022/09/19 12:00:26;;;;;;;0.70;0.70;;;;;;;12.58;80.05;100310.03;5564159;32;33510;-57
2022/09/19 12:04:02;;;;;;;1.92;0.90;;;;;;;12.56;76.41;100314.91;5553137;31;32681;-57
2022/09/19 12:07:19;;;;;;;0.77;0.77;;;;;;;12.49;80.08;100319.06;5552181;32;32746;-57
2022/09/19 12:10:54;;;;;;;1.40;0.93;;;;;;;12.55;77.96;100329.44;5562825;32;33086;-57
2022/09/19 12:14:04;;;;;;;1.35;0.70;;;;;;;12.47;80.46;100335.47;5563648;32;32891;-57
2022/09/19 12:17:23;;;;;;;0.40;0.40;;;;;;;12.37;79.02;100333.75;5562553;32;33731;-57
2022/09/19 12:20:38;;;;;;;0.30;0.30;;;;;;;12.19;74.14;100334.59;5565073;32;32833;-57
2022/09/19 12:27:18;;;;;;;0.30;0.30;;;;;;;12.07;73.38;100345.75;5569217;32;33740;-57
2022/09/19 12:30:23;;;;;;;0.40;0.40;;;;;;;11.99;71.55;100341.06;5569375;31;31999;-57
2022/09/19 12:33:39;;;;;;;0.50;0.45;;;;;;;12.07;73.25;100347.66;5569437;32;31892;-57
2022/09/19 12:36:50;;;;;;;0.70;0.47;;;;;;;12.19;72.19;100348.81;5567506;32;33190;-57
2022/09/19 12:40:06;;;;;;;1.40;0.40;;;;;;;12.21;76.00;100351.19;5562561;32;33787;-57
2022/09/19 12:43:20;;;;;;;1.35;0.60;;;;;;;12.44;76.59;100358.38;5552564;32;33011;-57
2022/09/19 12:47:01;;;;;;;0.95;0.60;;;;;;;12.57;74.77;100350.66;5560081;32;35736;-57
2022/09/19 12:50:20;;;;;;;3.40;0.60;;;;;;;12.72;74.07;100350.41;5551063;32;33478;-57
2022/09/19 12:53:31;;;;;;;1.15;0.60;;;;;;;12.65;72.67;100350.78;5558309;32;33712;-57
2022/09/19 12:56:50;;;;;;;2.40;0.60;;;;;;;12.87;75.55;100342.06;5570262;32;33771;-57
2022/09/19 12:59:54;;;;;;;2.78;0.60;;;;;;;12.96;73.29;100342.19;5570338;32;33653;-57
2022/09/19 13:03:26;;;;;;;1.33;0.70;;;;;;;12.92;71.89;100336.59;5569582;32;33729;-57
2022/09/19 13:06:36;;;;;;;0.75;0.50;;;;;;;13.14;73.08;100337.81;5570013;32;33917;-57
2022/09/19 13:09:55;;;;;;;3.75;0.50;;;;;;;13.16;73.67;100338.31;5570468;32;33649;-57
2022/09/19 13:13:09;;;;;;;0.80;0.50;;;;;;;13.24;72.89;100334.94;5568964;32;33650;-57
2022/09/19 13:16:13;;;;;;;1.02;0.40;;;;;;;13.35;75.91;100322.91;5569911;32;33411;-57
2022/09/19 13:26:20;;;;;;;0.95;0.40;;;;;;;13.50;66.62;100315.59;5569558;32;34360;-57
2022/09/19 13:29:28;;;;;;;0.40;0.40;;;;;;;13.53;67.27;100321.19;5565443;31;33666;-57
2022/09/19 13:32:54;;;;;;;2.15;0.60;;;;;;;13.51;65.51;100319.88;5568856;32;33667;-57
2022/09/19 13:36:07;;;;;;;1.95;0.50;;;;;;;13.65;66.53;100311.81;5559350;32;33610;-57
2022/09/19 13:39:48;;;;;;;1.02;0.52;;;;;;;13.70;66.50;100319.78;5569082;32;33773;-56
2022/09/19 13:43:09;;;;;;;2.75;0.70;;;;;;;13.83;62.74;100314.34;5566183;32;34437;-57
2022/09/19 13:46:22;;;;;;;0.85;0.68;;;;;;;13.79;62.02;100312.56;5550095;32;34373;-57
2022/09/19 13:49:41;;;;;;;1.10;0.62;;;;;;;13.67;65.03;100314.97;5550588;32;33657;-57
2022/09/19 13:53:01;;;;;;;0.95;0.70;;;;;;;13.66;64.02;100326.88;5564956;32;33697;-57
2022/09/19 13:56:34;;;;;;;0.68;0.62;;;;;;;13.63;64.60;100326.34;5569176;32;34328;-57
2022/09/19 13:59:40;;;;;;;0.80;0.70;;;;;;;13.65;63.18;100325.28;5569880;32;33797;-56
2022/09/19 14:03:02;;;;;;;1.50;0.80;;;;;;;13.65;64.99;100334.16;5568987;32;33801;-57
2022/09/19 14:06:27;;;;;;;3.05;0.80;;;;;;;13.65;65.89;100328.78;5568496;32;34421;-57
2022/09/19 14:09:40;;;;;;;1.10;0.77;;;;;;;13.57;66.53;100326.78;5568030;32;33695;-57
2022/09/19 14:13:28;;;;;;;1.98;0.80;;;;;;;13.63;67.46;100330.94;5569026;32;33727;-57
2022/09/19 14:16:36;;;;;;;3.50;1.10;;;;;;;13.61;66.13;100333.16;5567111;32;32168;-57
2022/09/19 14:19:48;;;;;;;1.30;0.90;;;;;;;13.62;67.46;100342.84;5550147;32;33685;-57
2022/09/19 14:22:50;;;;;;;1.90;0.90;;;;;;;13.58;68.83;100342.66;5549988;32;33721;-57
2022/09/19 14:25:57;;;;;;;2.05;0.90;;;;;;;13.62;68.21;100335.56;5560101;32;33771;-57
2022/09/19 14:29:27;;;;;;;0.90;0.80;;;;;;;13.65;67.27;100346.81;5551117;32;33841;-56
2022/09/19 14:32:59;;;;;;;2.03;0.70;;;;;;;13.88;70.86;100343.09;5565176;32;33604;-57
2022/09/19 14:36:09;;;;;;;1.08;0.70;;;;;;;14.05;62.01;100335.16;5568667;32;34580;-57
2022/09/19 14:39:43;;;;;;;1.15;1.00;;;;;;;14.03;61.93;100331.97;5569506;32;34373;-57
2022/09/19 14:42:54;;;;;;;3.00;0.70;;;;;;;13.99;62.97;100320.19;5568243;32;34327;-57
2022/09/19 14:46:18;;;;;;;1.20;0.90;;;;;;;14.10;63.08;100324.28;5569174;31;33533;-56
2022/09/19 14:49:28;;;;;;;1.12;0.80;;;;;;;14.00;61.92;100321.00;5569296;32;34300;-57
2022/09/19 14:52:31;;;;;;;1.75;0.80;;;;;;;14.14;60.95;100319.06;5568666;32;33650;-57
2022/09/19 14:55:49;;;;;;;0.80;0.80;;;;;;;14.24;61.27;100315.34;5569547;32;33691;-57
2022/09/19 14:58:52;;;;;;;2.47;0.80;;;;;;;14.20;64.13;100323.22;5557870;32;34413;-57
2022/09/19 15:02:04;;;;;;;2.78;0.80;;;;;;;14.15;61.97;100319.88;5549869;32;34417;-58
2022/09/19 15:05:18;;;;;;;0.70;0.60;;;;;;;14.00;65.39;100316.41;5567006;32;34360;-58
2022/09/19 15:08:28;;;;;;;1.75;0.80;;;;;;;13.98;68.01;100305.13;5559462;32;33765;-57
